sensor_id;sensor_type;location;lat;lon;timestamp;pressure;altitude;pressure_sealevel;temperature;humidity
49825;BME280;35714;55.708;37.478;2023-03-16T00:02:06;98975.59;;;4.70;59.89
49825;BME280;35714;55.708;37.478;2023-03-16T00:04:32;98976.81;;;4.75;60.20
49825;BME280;35714;55.708;37.478;2023-03-16T00:07:05;98982.19;;;4.75;60.50
49825;BME280;35714;55.708;37.478;2023-03-16T00:09:30;98961.56;;;4.68;60.69
49825;BME280;35714;55.708;37.478;2023-03-16T00:11:57;98970.81;;;4.73;60.51
49825;BME280;35714;55.708;37.478;2023-03-16T00:14:24;98959.28;;;4.65;61.14
49825;BME280;35714;55.708;37.478;2023-03-16T00:16:50;98960.91;;;4.66;61.03
49825;BME280;35714;55.708;37.478;2023-03-16T00:19:15;98951.84;;;4.67;60.98
49825;BME280;35714;55.708;37.478;2023-03-16T00:21:41;98951.63;;;4.76;61.26
49825;BME280;35714;55.708;37.478;2023-03-16T00:24:07;98949.13;;;4.74;60.66
49825;BME280;35714;55.708;37.478;2023-03-16T00:26:32;98947.50;;;4.66;61.08
49825;BME280;35714;55.708;37.478;2023-03-16T00:28:58;98962.78;;;4.73;61.05
49825;BME280;35714;55.708;37.478;2023-03-16T00:31:24;98952.03;;;4.73;61.03
49825;BME280;35714;55.708;37.478;2023-03-16T00:33:50;98958.41;;;4.72;61.15
49825;BME280;35714;55.708;37.478;2023-03-16T00:36:16;98960.91;;;4.73;61.36
49825;BME280;35714;55.708;37.478;2023-03-16T00:38:42;98969.38;;;4.77;61.15
49825;BME280;35714;55.708;37.478;2023-03-16T00:41:12;98963.59;;;4.80;61.30
49825;BME280;35714;55.708;37.478;2023-03-16T00:43:42;98967.09;;;4.87;61.19
49825;BME280;35714;55.708;37.478;2023-03-16T00:46:12;98968.72;;;4.95;61.23
49825;BME280;35714;55.708;37.478;2023-03-16T00:48:43;98966.66;;;4.90;61.36
49825;BME280;35714;55.708;37.478;2023-03-16T00:51:12;98969.34;;;4.90;61.36
49825;BME280;35714;55.708;37.478;2023-03-16T00:53:41;98964.59;;;4.85;61.49
49825;BME280;35714;55.708;37.478;2023-03-16T00:56:07;98964.19;;;4.88;61.67
49825;BME280;35714;55.708;37.478;2023-03-16T00:58:35;98971.84;;;4.85;61.92
49825;BME280;35714;55.708;37.478;2023-03-16T01:01:06;98977.22;;;4.85;62.09
49825;BME280;35714;55.708;37.478;2023-03-16T01:03:33;98970.59;;;4.81;62.11
49825;BME280;35714;55.708;37.478;2023-03-16T01:06:10;98980.13;;;4.77;62.53
49825;BME280;35714;55.708;37.478;2023-03-16T01:08:38;98965.47;;;4.73;62.52
49825;BME280;35714;55.708;37.478;2023-03-16T01:11:09;98964.84;;;4.70;62.66
49825;BME280;35714;55.708;37.478;2023-03-16T01:13:36;98964.25;;;4.68;62.91
49825;BME280;35714;55.708;37.478;2023-03-16T01:16:02;98963.19;;;4.63;63.00
49825;BME280;35714;55.708;37.478;2023-03-16T01:18:29;98969.63;;;4.68;62.80
49825;BME280;35714;55.708;37.478;2023-03-16T01:21:00;98977.22;;;4.72;62.98
49825;BME280;35714;55.708;37.478;2023-03-16T01:23:26;98970.63;;;4.67;62.99
49825;BME280;35714;55.708;37.478;2023-03-16T01:25:55;98966.06;;;4.68;62.78
49825;BME280;35714;55.708;37.478;2023-03-16T01:28:26;98978.88;;;4.73;63.10
49825;BME280;35714;55.708;37.478;2023-03-16T01:30:54;98960.91;;;4.66;63.15
49825;BME280;35714;55.708;37.478;2023-03-16T01:33:23;98974.53;;;4.72;63.01
49825;BME280;35714;55.708;37.478;2023-03-16T01:35:57;98973.94;;;4.69;62.85
49825;BME280;35714;55.708;37.478;2023-03-16T01:38:24;98980.13;;;4.77;62.46
49825;BME280;35714;55.708;37.478;2023-03-16T01:40:51;98969.81;;;4.74;62.61
49825;BME280;35714;55.708;37.478;2023-03-16T01:43:20;98979.09;;;4.71;62.79
49825;BME280;35714;55.708;37.478;2023-03-16T01:51:30;98964.84;;;4.57;62.90
49825;BME280;35714;55.708;37.478;2023-03-16T01:56:40;98982.00;;;4.56;63.42
49825;BME280;35714;55.708;37.478;2023-03-16T01:59:11;98974.16;;;4.55;63.37
49825;BME280;35714;55.708;37.478;2023-03-16T02:01:38;98973.13;;;4.62;63.24
49825;BME280;35714;55.708;37.478;2023-03-16T02:04:39;98973.53;;;4.59;63.01
49825;BME280;35714;55.708;37.478;2023-03-16T02:07:08;98964.03;;;4.57;63.27
49825;BME280;35714;55.708;37.478;2023-03-16T02:09:36;98970.22;;;4.57;63.21
49825;BME280;35714;55.708;37.478;2023-03-16T02:12:04;98984.69;;;4.56;63.23
49825;BME280;35714;55.708;37.478;2023-03-16T02:14:33;98976.00;;;4.61;63.18
49825;BME280;35714;55.708;37.478;2023-03-16T02:17:00;98981.59;;;4.59;63.19
49825;BME280;35714;55.708;37.478;2023-03-16T02:19:43;98976.63;;;4.63;63.24
49825;BME280;35714;55.708;37.478;2023-03-16T02:22:12;98978.91;;;4.59;63.01
49825;BME280;35714;55.708;37.478;2023-03-16T02:24:39;98977.25;;;4.58;63.03
49825;BME280;35714;55.708;37.478;2023-03-16T02:27:14;98973.94;;;4.63;63.13
49825;BME280;35714;55.708;37.478;2023-03-16T02:32:31;98973.53;;;4.66;62.94
49825;BME280;35714;55.708;37.478;2023-03-16T02:35:00;98976.00;;;4.61;63.05
49825;BME280;35714;55.708;37.478;2023-03-16T02:37:28;98971.88;;;4.65;63.17
49825;BME280;35714;55.708;37.478;2023-03-16T02:39:54;98973.53;;;4.59;63.16
49825;BME280;35714;55.708;37.478;2023-03-16T02:42:22;98967.13;;;4.60;63.32
49825;BME280;35714;55.708;37.478;2023-03-16T02:44:55;98971.06;;;4.64;63.12
49825;BME280;35714;55.708;37.478;2023-03-16T02:47:45;98962.16;;;4.70;63.10
49825;BME280;35714;55.708;37.478;2023-03-16T02:50:12;98949.75;;;4.69;63.05
49825;BME280;35714;55.708;37.478;2023-03-16T02:52:39;98961.97;;;4.72;62.94
49825;BME280;35714;55.708;37.478;2023-03-16T02:55:06;98962.78;;;4.73;62.95
49825;BME280;35714;55.708;37.478;2023-03-16T02:57:32;98953.69;;;4.74;63.10
49825;BME280;35714;55.708;37.478;2023-03-16T03:00:03;98963.59;;;4.80;62.70
49825;BME280;35714;55.708;37.478;2023-03-16T03:02:44;98958.22;;;4.86;62.75
49825;BME280;35714;55.708;37.478;2023-03-16T03:05:11;98969.78;;;4.87;62.62
49825;BME280;35714;55.708;37.478;2023-03-16T03:07:37;98959.84;;;4.94;62.33
49825;BME280;35714;55.708;37.478;2023-03-16T03:10:06;98960.09;;;4.86;62.38
49825;BME280;35714;55.708;37.478;2023-03-16T03:12:32;98956.75;;;4.84;62.67
49825;BME280;35714;55.708;37.478;2023-03-16T03:14:58;98955.31;;;4.88;62.62
49825;BME280;35714;55.708;37.478;2023-03-16T03:17:24;98952.81;;;4.93;62.37
49825;BME280;35714;55.708;37.478;2023-03-16T03:19:56;98954.91;;;4.84;62.70
49825;BME280;35714;55.708;37.478;2023-03-16T03:22:22;98950.38;;;4.85;63.09
49825;BME280;35714;55.708;37.478;2023-03-16T03:24:48;98952.63;;;4.88;62.84
49825;BME280;35714;55.708;37.478;2023-03-16T03:27:13;98948.50;;;4.92;62.91
49825;BME280;35714;55.708;37.478;2023-03-16T03:29:39;98946.22;;;4.96;62.77
49825;BME280;35714;55.708;37.478;2023-03-16T03:32:05;98930.50;;;4.93;62.97
49825;BME280;35714;55.708;37.478;2023-03-16T03:34:31;98946.59;;;4.99;62.95
49825;BME280;35714;55.708;37.478;2023-03-16T03:36:58;98934.22;;;4.98;62.97
49825;BME280;35714;55.708;37.478;2023-03-16T03:39:25;98939.38;;;5.06;62.95
49825;BME280;35714;55.708;37.478;2023-03-16T03:41:51;98937.88;;;5.11;62.71
49825;BME280;35714;55.708;37.478;2023-03-16T03:44:21;98921.78;;;5.11;62.29
49825;BME280;35714;55.708;37.478;2023-03-16T03:46:47;98937.88;;;5.11;62.48
49825;BME280;35714;55.708;37.478;2023-03-16T03:49:14;98946.19;;;5.02;62.66
49825;BME280;35714;55.708;37.478;2023-03-16T03:51:40;98938.38;;;4.94;62.95
49825;BME280;35714;55.708;37.478;2023-03-16T03:54:10;98941.66;;;4.96;62.90
49825;BME280;35714;55.708;37.478;2023-03-16T03:56:52;98947.03;;;4.96;63.08
49825;BME280;35714;55.708;37.478;2023-03-16T03:59:18;98952.41;;;4.96;62.97
49825;BME280;35714;55.708;37.478;2023-03-16T04:02:03;98947.88;;;4.97;63.03
49825;BME280;35714;55.708;37.478;2023-03-16T04:04:42;98957.78;;;4.96;62.97
49825;BME280;35714;55.708;37.478;2023-03-16T04:07:11;98953.25;;;4.90;63.24
49825;BME280;35714;55.708;37.478;2023-03-16T04:09:37;98951.78;;;4.94;62.95
49825;BME280;35714;55.708;37.478;2023-03-16T04:12:05;98946.22;;;4.96;63.06
49825;BME280;35714;55.708;37.478;2023-03-16T04:14:31;98933.38;;;4.98;63.27
49825;BME280;35714;55.708;37.478;2023-03-16T04:16:59;98934.00;;;5.06;63.31
49825;BME280;35714;55.708;37.478;2023-03-16T04:19:25;98938.53;;;5.13;62.93
49825;BME280;35714;55.708;37.478;2023-03-16T04:21:53;98943.28;;;5.17;62.42
49825;BME280;35714;55.708;37.478;2023-03-16T04:24:19;98934.19;;;5.12;62.69
49825;BME280;35714;55.708;37.478;2023-03-16T04:26:45;98940.78;;;5.16;62.88
49825;BME280;35714;55.708;37.478;2023-03-16T04:29:14;98942.63;;;5.22;62.75
49825;BME280;35714;55.708;37.478;2023-03-16T04:31:43;98947.38;;;5.20;62.63
49825;BME280;35714;55.708;37.478;2023-03-16T04:34:09;98941.63;;;5.10;62.62
49825;BME280;35714;55.708;37.478;2023-03-16T04:36:36;98950.91;;;5.14;62.54
49825;BME280;35714;55.708;37.478;2023-03-16T04:39:08;98950.72;;;5.09;62.78
49825;BME280;35714;55.708;37.478;2023-03-16T04:41:35;98948.22;;;5.14;62.78
49825;BME280;35714;55.708;37.478;2023-03-16T04:44:15;98953.59;;;5.14;62.88
49825;BME280;35714;55.708;37.478;2023-03-16T04:46:42;98958.97;;;5.14;62.51
49825;BME280;35714;55.708;37.478;2023-03-16T04:49:09;98959.81;;;5.14;62.30
49825;BME280;35714;55.708;37.478;2023-03-16T04:51:36;98963.75;;;5.12;62.57
49825;BME280;35714;55.708;37.478;2023-03-16T04:54:12;98969.94;;;5.19;62.26
49825;BME280;35714;55.708;37.478;2023-03-16T04:56:41;98973.66;;;5.04;62.37
49825;BME280;35714;55.708;37.478;2023-03-16T04:59:13;98965.66;;;4.91;62.68
49825;BME280;35714;55.708;37.478;2023-03-16T05:01:47;98980.09;;;4.90;62.65
49825;BME280;35714;55.708;37.478;2023-03-16T05:04:15;98990.25;;;4.88;62.76
49825;BME280;35714;55.708;37.478;2023-03-16T05:06:41;98989.63;;;4.86;63.19
49825;BME280;35714;55.708;37.478;2023-03-16T05:09:07;98983.44;;;4.79;63.12
49825;BME280;35714;55.708;37.478;2023-03-16T05:11:36;98988.38;;;4.88;62.87
49825;BME280;35714;55.708;37.478;2023-03-16T05:14:05;98987.38;;;4.83;62.84
49825;BME280;35714;55.708;37.478;2023-03-16T05:16:36;98985.50;;;4.77;63.08
49825;BME280;35714;55.708;37.478;2023-03-16T05:19:02;98991.28;;;4.74;63.35
49825;BME280;35714;55.708;37.478;2023-03-16T05:21:31;98979.50;;;4.75;63.90
49825;BME280;35714;55.708;37.478;2023-03-16T05:24:06;98985.91;;;4.80;63.51
49825;BME280;35714;55.708;37.478;2023-03-16T05:26:32;98992.09;;;4.81;63.56
49825;BME280;35714;55.708;37.478;2023-03-16T05:28:59;98975.56;;;4.77;63.69
49825;BME280;35714;55.708;37.478;2023-03-16T05:31:27;98985.50;;;4.83;63.61
49825;BME280;35714;55.708;37.478;2023-03-16T05:33:58;98988.81;;;4.79;63.44
49825;BME280;35714;55.708;37.478;2023-03-16T05:36:24;98975.38;;;4.79;63.53
49825;BME280;35714;55.708;37.478;2023-03-16T05:38:54;98989.19;;;4.82;63.68
49825;BME280;35714;55.708;37.478;2023-03-16T05:41:28;98986.31;;;4.84;63.66
49825;BME280;35714;55.708;37.478;2023-03-16T05:44:08;98990.84;;;4.90;63.72
49825;BME280;35714;55.708;37.478;2023-03-16T05:46:51;98990.88;;;4.97;63.77
49825;BME280;35714;55.708;37.478;2023-03-16T05:49:19;98982.56;;;5.05;63.51
49825;BME280;35714;55.708;37.478;2023-03-16T05:51:44;98979.88;;;5.05;62.80
49825;BME280;35714;55.708;37.478;2023-03-16T05:54:10;98993.72;;;5.09;62.75
49825;BME280;35714;55.708;37.478;2023-03-16T05:56:43;98993.31;;;5.05;62.90
49825;BME280;35714;55.708;37.478;2023-03-16T05:59:08;98987.50;;;5.01;63.02
49825;BME280;35714;55.708;37.478;2023-03-16T06:01:35;98993.31;;;5.05;63.14
49825;BME280;35714;55.708;37.478;2023-03-16T06:04:02;98989.59;;;5.13;62.78
49825;BME280;35714;55.708;37.478;2023-03-16T06:06:32;98988.13;;;5.10;62.89
49825;BME280;35714;55.708;37.478;2023-03-16T06:09:05;99000.75;;;5.10;62.63
49825;BME280;35714;55.708;37.478;2023-03-16T06:11:31;98992.06;;;5.07;63.06
49825;BME280;35714;55.708;37.478;2023-03-16T06:13:59;98997.44;;;5.01;62.97
49825;BME280;35714;55.708;37.478;2023-03-16T06:16:25;99001.41;;;4.98;63.16
49825;BME280;35714;55.708;37.478;2023-03-16T06:18:50;99011.50;;;4.96;63.45
49825;BME280;35714;55.708;37.478;2023-03-16T06:21:16;99014.19;;;4.96;63.37
49825;BME280;35714;55.708;37.478;2023-03-16T06:23:44;99023.50;;;5.00;63.33
49825;BME280;35714;55.708;37.478;2023-03-16T06:26:09;99035.06;;;5.01;63.36
49825;BME280;35714;55.708;37.478;2023-03-16T06:28:38;99031.38;;;4.95;63.07
49825;BME280;35714;55.708;37.478;2023-03-16T06:31:04;99023.31;;;4.95;63.33
49825;BME280;35714;55.708;37.478;2023-03-16T06:33:33;99023.50;;;4.94;63.67
49825;BME280;35714;55.708;37.478;2023-03-16T06:35:59;99029.72;;;4.94;63.55
49825;BME280;35714;55.708;37.478;2023-03-16T06:38:31;99016.91;;;4.83;63.57
49825;BME280;35714;55.708;37.478;2023-03-16T06:41:03;99025.56;;;4.85;63.88
49825;BME280;35714;55.708;37.478;2023-03-16T06:43:32;99013.81;;;4.86;64.12
49825;BME280;35714;55.708;37.478;2023-03-16T06:45:58;99014.00;;;4.78;64.11
49825;BME280;35714;55.708;37.478;2023-03-16T06:48:23;99012.75;;;4.80;64.27
49825;BME280;35714;55.708;37.478;2023-03-16T06:50:49;99018.53;;;4.84;64.36
49825;BME280;35714;55.708;37.478;2023-03-16T06:53:20;99017.28;;;4.93;64.27
49825;BME280;35714;55.708;37.478;2023-03-16T06:55:47;99009.84;;;5.02;63.82
49825;BME280;35714;55.708;37.478;2023-03-16T06:58:12;99010.25;;;5.05;64.04
49825;BME280;35714;55.708;37.478;2023-03-16T07:00:38;99028.03;;;5.06;64.00
49825;BME280;35714;55.708;37.478;2023-03-16T07:03:04;99017.72;;;5.03;63.69
49825;BME280;35714;55.708;37.478;2023-03-16T07:05:31;99015.22;;;5.09;64.02
49825;BME280;35714;55.708;37.478;2023-03-16T07:07:58;99010.66;;;5.16;63.94
49825;BME280;35714;55.708;37.478;2023-03-16T07:10:24;99018.50;;;5.24;64.46
49825;BME280;35714;55.708;37.478;2023-03-16T07:12:50;99021.78;;;5.39;64.05
49825;BME280;35714;55.708;37.478;2023-03-16T07:15:16;99027.72;;;5.48;63.67
49825;BME280;35714;55.708;37.478;2023-03-16T07:17:42;99027.09;;;5.53;63.01
49825;BME280;35714;55.708;37.478;2023-03-16T07:20:09;99026.69;;;5.56;63.04
49825;BME280;35714;55.708;37.478;2023-03-16T07:22:37;99032.44;;;5.59;63.16
49825;BME280;35714;55.708;37.478;2023-03-16T07:25:06;99027.06;;;5.59;62.84
49825;BME280;35714;55.708;37.478;2023-03-16T07:27:32;99039.28;;;5.62;62.89
49825;BME280;35714;55.708;37.478;2023-03-16T07:30:00;99020.88;;;5.59;62.96
49825;BME280;35714;55.708;37.478;2023-03-16T07:32:27;99012.97;;;5.64;63.14
49825;BME280;35714;55.708;37.478;2023-03-16T07:34:54;99016.66;;;5.76;62.83
49825;BME280;35714;55.708;37.478;2023-03-16T07:37:19;99014.59;;;5.78;62.05
49825;BME280;35714;55.708;37.478;2023-03-16T07:39:48;99012.13;;;5.70;62.47
49825;BME280;35714;55.708;37.478;2023-03-16T07:42:17;99006.97;;;5.69;62.33
49825;BME280;35714;55.708;37.478;2023-03-16T07:45:03;99012.34;;;5.69;62.31
49825;BME280;35714;55.708;37.478;2023-03-16T07:47:29;99009.44;;;5.70;62.29
49825;BME280;35714;55.708;37.478;2023-03-16T07:49:58;99007.19;;;5.67;62.58
49825;BME280;35714;55.708;37.478;2023-03-16T07:52:26;98996.41;;;5.67;62.74
49825;BME280;35714;55.708;37.478;2023-03-16T07:54:53;98997.81;;;5.76;62.39
49825;BME280;35714;55.708;37.478;2023-03-16T07:57:18;99003.84;;;5.78;62.03
49825;BME280;35714;55.708;37.478;2023-03-16T07:59:46;99003.84;;;5.78;62.42
49825;BME280;35714;55.708;37.478;2023-03-16T08:02:17;99009.19;;;5.85;62.28
49825;BME280;35714;55.708;37.478;2023-03-16T08:04:44;99003.75;;;5.92;62.61
49825;BME280;35714;55.708;37.478;2023-03-16T08:07:13;99003.94;;;6.04;62.46
49825;BME280;35714;55.708;37.478;2023-03-16T08:09:54;99009.19;;;6.24;62.51
49825;BME280;35714;55.708;37.478;2023-03-16T08:12:26;99010.50;;;6.46;62.57
49825;BME280;35714;55.708;37.478;2023-03-16T08:14:51;99010.81;;;6.57;61.99
49825;BME280;35714;55.708;37.478;2023-03-16T08:17:24;99020.28;;;6.66;61.78
49825;BME280;35714;55.708;37.478;2023-03-16T08:19:50;99013.88;;;6.67;61.91
49825;BME280;35714;55.708;37.478;2023-03-16T08:22:16;99014.38;;;6.82;61.84
49825;BME280;35714;55.708;37.478;2023-03-16T08:24:44;99020.72;;;6.88;61.64
49825;BME280;35714;55.708;37.478;2023-03-16T08:27:12;99018.59;;;6.97;61.49
49825;BME280;35714;55.708;37.478;2023-03-16T08:29:44;99007.59;;;6.98;61.42
49825;BME280;35714;55.708;37.478;2023-03-16T08:32:14;98999.09;;;6.95;61.31
49825;BME280;35714;55.708;37.478;2023-03-16T08:34:42;99013.34;;;7.02;61.13
49825;BME280;35714;55.708;37.478;2023-03-16T08:37:08;99006.75;;;6.98;60.89
49825;BME280;35714;55.708;37.478;2023-03-16T08:39:34;99010.50;;;6.97;61.02
49825;BME280;35714;55.708;37.478;2023-03-16T08:42:04;99018.81;;;6.95;60.59
49825;BME280;35714;55.708;37.478;2023-03-16T08:44:38;99024.66;;;6.92;60.18
49825;BME280;35714;55.708;37.478;2023-03-16T08:47:04;99016.88;;;6.77;60.38
49825;BME280;35714;55.708;37.478;2023-03-16T08:49:31;99020.63;;;6.76;60.60
49825;BME280;35714;55.708;37.478;2023-03-16T08:52:10;99027.88;;;6.76;60.91
49825;BME280;35714;55.708;37.478;2023-03-16T08:54:38;99018.81;;;6.70;61.08
49825;BME280;35714;55.708;37.478;2023-03-16T08:57:04;98992.75;;;6.64;60.38
49825;BME280;35714;55.708;37.478;2023-03-16T08:59:29;99033.03;;;6.77;60.33
49825;BME280;35714;55.708;37.478;2023-03-16T09:01:56;99023.84;;;6.60;60.47
49825;BME280;35714;55.708;37.478;2023-03-16T09:04:21;99023.97;;;6.46;60.67
49825;BME280;35714;55.708;37.478;2023-03-16T09:06:48;99027.09;;;6.43;61.26
49825;BME280;35714;55.708;37.478;2023-03-16T09:09:16;99023.09;;;6.53;61.70
49825;BME280;35714;55.708;37.478;2023-03-16T09:11:43;99029.25;;;6.60;61.66
49825;BME280;35714;55.708;37.478;2023-03-16T09:14:09;99024.81;;;6.72;61.69
49825;BME280;35714;55.708;37.478;2023-03-16T09:16:38;99024.31;;;6.82;61.85
49825;BME280;35714;55.708;37.478;2023-03-16T09:19:04;99025.47;;;6.93;61.53
49825;BME280;35714;55.708;37.478;2023-03-16T09:21:32;99013.19;;;6.97;61.38
49825;BME280;35714;55.708;37.478;2023-03-16T09:24:00;99022.66;;;7.06;61.25
49825;BME280;35714;55.708;37.478;2023-03-16T09:26:26;99016.97;;;7.14;61.16
49825;BME280;35714;55.708;37.478;2023-03-16T09:28:53;99016.09;;;7.20;61.21
49825;BME280;35714;55.708;37.478;2023-03-16T09:31:19;99024.69;;;7.29;60.95
49825;BME280;35714;55.708;37.478;2023-03-16T09:33:45;99026.50;;;7.35;61.00
49825;BME280;35714;55.708;37.478;2023-03-16T09:36:12;99017.16;;;7.38;60.86
49825;BME280;35714;55.708;37.478;2023-03-16T09:38:38;99017.28;;;7.43;60.85
49825;BME280;35714;55.708;37.478;2023-03-16T09:46:30;99014.59;;;7.62;60.71
49825;BME280;35714;55.708;37.478;2023-03-16T09:48:59;99007.25;;;7.69;60.62
49825;BME280;35714;55.708;37.478;2023-03-16T09:51:40;99016.22;;;7.81;59.99
49825;BME280;35714;55.708;37.478;2023-03-16T09:56:47;99015.31;;;7.87;59.83
49825;BME280;35714;55.708;37.478;2023-03-16T09:59:14;99015.91;;;7.89;60.01
49825;BME280;35714;55.708;37.478;2023-03-16T10:04:58;99009.44;;;7.90;59.13
49825;BME280;35714;55.708;37.478;2023-03-16T10:09:57;99023.94;;;7.96;59.39
49825;BME280;35714;55.708;37.478;2023-03-16T10:12:29;99031.44;;;7.94;59.51
49825;BME280;35714;55.708;37.478;2023-03-16T10:18:00;99012.91;;;7.79;60.09
49825;BME280;35714;55.708;37.478;2023-03-16T10:20:30;99014.13;;;7.83;60.18
49825;BME280;35714;55.708;37.478;2023-03-16T10:22:57;99029.41;;;7.89;60.19
49825;BME280;35714;55.708;37.478;2023-03-16T10:25:53;99025.19;;;7.93;59.73
49825;BME280;35714;55.708;37.478;2023-03-16T10:28:27;99020.69;;;7.87;59.70
49825;BME280;35714;55.708;37.478;2023-03-16T10:30:58;99028.22;;;7.85;59.84
49825;BME280;35714;55.708;37.478;2023-03-16T10:33:32;99025.97;;;7.82;59.87
49825;BME280;35714;55.708;37.478;2023-03-16T10:36:36;99031.13;;;7.84;59.89
49825;BME280;35714;55.708;37.478;2023-03-16T10:39:05;99022.38;;;7.70;59.84
49825;BME280;35714;55.708;37.478;2023-03-16T10:41:34;99030.03;;;7.73;60.08
49825;BME280;35714;55.708;37.478;2023-03-16T10:46:41;99041.25;;;7.70;60.31
49825;BME280;35714;55.708;37.478;2023-03-16T10:49:23;99031.75;;;7.67;60.09
49825;BME280;35714;55.708;37.478;2023-03-16T10:51:54;99041.34;;;7.63;60.39
49825;BME280;35714;55.708;37.478;2023-03-16T10:54:46;99035.88;;;7.70;60.29
49825;BME280;35714;55.708;37.478;2023-03-16T10:57:22;99041.25;;;7.70;60.22
49825;BME280;35714;55.708;37.478;2023-03-16T10:59:50;99022.81;;;7.67;60.36
49825;BME280;35714;55.708;37.478;2023-03-16T11:02:18;99029.44;;;7.71;60.30
49825;BME280;35714;55.708;37.478;2023-03-16T11:04:47;99033.78;;;7.72;60.01
49825;BME280;35714;55.708;37.478;2023-03-16T11:07:16;99032.13;;;7.71;60.18
49825;BME280;35714;55.708;37.478;2023-03-16T11:09:43;99039.25;;;7.65;59.86
49825;BME280;35714;55.708;37.478;2023-03-16T11:12:24;99046.66;;;7.70;59.76
49825;BME280;35714;55.708;37.478;2023-03-16T11:14:50;99042.16;;;7.64;59.90
49825;BME280;35714;55.708;37.478;2023-03-16T11:17:49;99045.47;;;7.66;59.77
49825;BME280;35714;55.708;37.478;2023-03-16T11:20:22;99041.44;;;7.56;59.80
49825;BME280;35714;55.708;37.478;2023-03-16T11:22:51;99041.47;;;7.50;59.80
49825;BME280;35714;55.708;37.478;2023-03-16T11:25:43;99028.69;;;7.45;60.05
49825;BME280;35714;55.708;37.478;2023-03-16T11:28:31;99044.66;;;7.47;60.23
49825;BME280;35714;55.708;37.478;2023-03-16T11:33:26;99029.16;;;7.42;60.33
49825;BME280;35714;55.708;37.478;2023-03-16T11:36:29;99048.09;;;7.54;60.23
49825;BME280;35714;55.708;37.478;2023-03-16T11:44:37;99056.78;;;7.56;60.20
49825;BME280;35714;55.708;37.478;2023-03-16T11:50:00;99062.25;;;7.49;60.14
49825;BME280;35714;55.708;37.478;2023-03-16T12:00:34;99071.78;;;7.52;59.87
49825;BME280;35714;55.708;37.478;2023-03-16T12:09:14;99068.84;;;7.53;59.66
49825;BME280;35714;55.708;37.478;2023-03-16T12:12:01;99079.50;;;7.48;60.10
49825;BME280;35714;55.708;37.478;2023-03-16T12:14:34;99071.22;;;7.43;60.17
49825;BME280;35714;55.708;37.478;2023-03-16T12:17:19;99066.91;;;7.42;60.24
49825;BME280;35714;55.708;37.478;2023-03-16T12:22:41;99064.66;;;7.39;60.01
49825;BME280;35714;55.708;37.478;2023-03-16T12:27:42;99059.97;;;7.28;60.47
49825;BME280;35714;55.708;37.478;2023-03-16T12:41:40;99080.78;;;7.20;60.50
49825;BME280;35714;55.708;37.478;2023-03-16T12:44:27;99090.78;;;7.20;60.79
49825;BME280;35714;55.708;37.478;2023-03-16T12:47:10;99094.13;;;7.15;60.74
49825;BME280;35714;55.708;37.478;2023-03-16T12:49:40;99096.41;;;7.12;60.77
49825;BME280;35714;55.708;37.478;2023-03-16T12:52:08;99093.34;;;7.08;61.15
49825;BME280;35714;55.708;37.478;2023-03-16T12:54:35;99097.50;;;7.04;61.17
49825;BME280;35714;55.708;37.478;2023-03-16T12:57:05;99094.22;;;7.02;61.42
49825;BME280;35714;55.708;37.478;2023-03-16T12:59:38;99091.97;;;6.99;61.45
49825;BME280;35714;55.708;37.478;2023-03-16T13:02:29;99103.34;;;7.01;61.87
49825;BME280;35714;55.708;37.478;2023-03-16T13:05:10;99111.44;;;7.01;61.79
49825;BME280;35714;55.708;37.478;2023-03-16T13:07:47;99106.69;;;6.96;62.06
49825;BME280;35714;55.708;37.478;2023-03-16T13:10:14;99106.75;;;6.90;62.08
49825;BME280;35714;55.708;37.478;2023-03-16T13:12:42;99104.34;;;6.81;62.44
49825;BME280;35714;55.708;37.478;2023-03-16T13:17:49;99103.38;;;6.69;62.69
49825;BME280;35714;55.708;37.478;2023-03-16T13:20:32;99096.53;;;6.73;63.20
49825;BME280;35714;55.708;37.478;2023-03-16T13:25:44;99103.75;;;6.73;63.08
49825;BME280;35714;55.708;37.478;2023-03-16T13:28:27;99096.09;;;6.69;63.00
49825;BME280;35714;55.708;37.478;2023-03-16T13:30:53;99099.88;;;6.68;63.12
49825;BME280;35714;55.708;37.478;2023-03-16T13:33:22;99088.25;;;6.68;63.50
49825;BME280;35714;55.708;37.478;2023-03-16T13:35:51;99101.91;;;6.73;63.67
49825;BME280;35714;55.708;37.478;2023-03-16T13:38:20;99092.16;;;6.72;63.62
49825;BME280;35714;55.708;37.478;2023-03-16T13:40:49;99088.22;;;6.75;63.52
49825;BME280;35714;55.708;37.478;2023-03-16T13:43:18;99094.41;;;6.75;63.75
49825;BME280;35714;55.708;37.478;2023-03-16T13:45:44;99088.44;;;6.73;63.78
49825;BME280;35714;55.708;37.478;2023-03-16T13:48:13;99095.03;;;6.77;63.67
49825;BME280;35714;55.708;37.478;2023-03-16T13:50:41;99096.69;;;6.78;63.63
49825;BME280;35714;55.708;37.478;2023-03-16T13:53:16;99102.28;;;6.77;63.58
49825;BME280;35714;55.708;37.478;2023-03-16T13:55:45;99098.16;;;6.74;63.58
49825;BME280;35714;55.708;37.478;2023-03-16T13:58:23;99093.81;;;6.73;63.53
49825;BME280;35714;55.708;37.478;2023-03-16T14:00:55;99095.94;;;6.64;63.64
49825;BME280;35714;55.708;37.478;2023-03-16T14:03:21;99094.97;;;6.59;63.62
49825;BME280;35714;55.708;37.478;2023-03-16T14:05:48;99090.44;;;6.53;63.41
49825;BME280;35714;55.708;37.478;2023-03-16T14:08:19;99096.91;;;6.45;63.75
49825;BME280;35714;55.708;37.478;2023-03-16T14:10:46;99105.19;;;6.43;63.73
49825;BME280;35714;55.708;37.478;2023-03-16T14:18:38;99092.22;;;6.27;64.17
49825;BME280;35714;55.708;37.478;2023-03-16T14:21:06;99091.03;;;6.23;64.41
49825;BME280;35714;55.708;37.478;2023-03-16T14:23:43;99079.00;;;6.19;64.28
49825;BME280;35714;55.708;37.478;2023-03-16T14:26:14;99092.31;;;6.13;64.68
49825;BME280;35714;55.708;37.478;2023-03-16T14:28:52;99098.72;;;6.12;64.74
49825;BME280;35714;55.708;37.478;2023-03-16T14:31:19;99096.41;;;6.16;64.83
49825;BME280;35714;55.708;37.478;2023-03-16T14:33:45;99096.41;;;6.16;64.62
49825;BME280;35714;55.708;37.478;2023-03-16T14:36:18;99104.47;;;6.23;64.91
49825;BME280;35714;55.708;37.478;2023-03-16T14:38:46;99094.75;;;6.22;64.83